sensor_id;sensor_type;location;lat;lon;timestamp;pressure;altitude;pressure_sealevel;temperature;humidity
9423;BME280;65863;49.506;10.400;2023-01-27T00:02:39;98240.59;;;-2.52;86.27
9423;BME280;65863;49.506;10.400;2023-01-27T00:05:23;98253.72;;;-2.56;86.50
9423;BME280;65863;49.506;10.400;2023-01-27T00:08:07;98179.81;;;-3.09;86.34
9423;BME280;65863;49.506;10.400;2023-01-27T00:10:56;98202.56;;;-2.90;86.44
9423;BME280;65863;49.506;10.400;2023-01-27T00:14:00;98236.63;;;-2.60;86.42
9423;BME280;65863;49.506;10.400;2023-01-27T00:16:44;98207.31;;;-2.82;86.40
9423;BME280;65863;49.506;10.400;2023-01-27T00:19:28;98271.44;;;-2.29;86.78
9423;BME280;65863;49.506;10.400;2023-01-27T00:22:12;98248.53;;;-2.54;86.50
9423;BME280;65863;49.506;10.400;2023-01-27T00:25:15;98201.81;;;-2.82;86.48
9423;BME280;65863;49.506;10.400;2023-01-27T00:27:59;98263.19;;;-2.38;86.30
9423;BME280;65863;49.506;10.400;2023-01-27T00:30:43;98262.72;;;-2.55;86.63
9423;BME280;65863;49.506;10.400;2023-01-27T00:33:28;98249.78;;;-2.55;86.47
9423;BME280;65863;49.506;10.400;2023-01-27T00:36:12;98242.88;;;-2.60;86.62
9423;BME280;65863;49.506;10.400;2023-01-27T00:38:56;98256.47;;;-2.56;86.89
9423;BME280;65863;49.506;10.400;2023-01-27T00:41:40;98212.78;;;-2.91;86.59
9423;BME280;65863;49.506;10.400;2023-01-27T00:44:24;98250.66;;;-2.58;86.91
9423;BME280;65863;49.506;10.400;2023-01-27T00:47:08;98254.97;;;-2.48;87.01
9423;BME280;65863;49.506;10.400;2023-01-27T00:49:52;98247.94;;;-2.67;87.17
9423;BME280;65863;49.506;10.400;2023-01-27T00:52:36;98294.53;;;-2.45;87.01
9423;BME280;65863;49.506;10.400;2023-01-27T00:55:20;98270.97;;;-2.55;87.22
9423;BME280;65863;49.506;10.400;2023-01-27T00:58:04;98239.66;;;-2.86;87.20
9423;BME280;65863;49.506;10.400;2023-01-27T01:00:48;98243.63;;;-2.87;87.46
9423;BME280;65863;49.506;10.400;2023-01-27T01:03:33;98262.41;;;-2.67;87.26
9423;BME280;65863;49.506;10.400;2023-01-27T01:06:18;98299.88;;;-2.42;87.83
9423;BME280;65863;49.506;10.400;2023-01-27T01:09:05;98259.06;;;-2.71;87.51
9423;BME280;65863;49.506;10.400;2023-01-27T01:11:49;98309.34;;;-2.33;87.74
9423;BME280;65863;49.506;10.400;2023-01-27T01:14:33;98222.53;;;-2.99;87.69
9423;BME280;65863;49.506;10.400;2023-01-27T01:17:17;98290.09;;;-2.52;87.80
9423;BME280;65863;49.506;10.400;2023-01-27T01:20:03;98286.41;;;-2.49;87.83
9423;BME280;65863;49.506;10.400;2023-01-27T01:22:47;98254.34;;;-2.70;87.85
9423;BME280;65863;49.506;10.400;2023-01-27T01:25:31;98275.09;;;-2.60;87.87
9423;BME280;65863;49.506;10.400;2023-01-27T01:28:15;98287.66;;;-2.40;87.69
9423;BME280;65863;49.506;10.400;2023-01-27T01:31:08;98291.91;;;-2.49;87.73
9423;BME280;65863;49.506;10.400;2023-01-27T01:33:52;98259.38;;;-2.69;88.07
9423;BME280;65863;49.506;10.400;2023-01-27T01:36:36;98202.72;;;-3.03;87.81
9423;BME280;65863;49.506;10.400;2023-01-27T01:39:22;98276.34;;;-2.52;87.84
9423;BME280;65863;49.506;10.400;2023-01-27T01:42:07;98263.19;;;-2.57;87.93
9423;BME280;65863;49.506;10.400;2023-01-27T01:51:11;98271.59;;;-2.51;87.93
9423;BME280;65863;49.506;10.400;2023-01-27T01:54:03;98282.13;;;-2.31;88.12
9423;BME280;65863;49.506;10.400;2023-01-27T01:56:58;98235.41;;;-2.68;88.02
9423;BME280;65863;49.506;10.400;2023-01-27T01:59:55;98271.16;;;-2.40;88.17
9423;BME280;65863;49.506;10.400;2023-01-27T02:02:41;98291.00;;;-2.36;88.40
9423;BME280;65863;49.506;10.400;2023-01-27T02:05:29;98285.50;;;-2.36;88.30
9423;BME280;65863;49.506;10.400;2023-01-27T02:08:20;98291.63;;;-2.23;88.41
9423;BME280;65863;49.506;10.400;2023-01-27T02:11:07;98274.03;;;-2.44;88.58
9423;BME280;65863;49.506;10.400;2023-01-27T02:13:54;98278.94;;;-2.39;88.38
9423;BME280;65863;49.506;10.400;2023-01-27T02:16:39;98269.31;;;-2.44;88.66
9423;BME280;65863;49.506;10.400;2023-01-27T02:19:40;98243.03;;;-2.54;88.49
9423;BME280;65863;49.506;10.400;2023-01-27T02:22:35;98263.50;;;-2.27;88.71
9423;BME280;65863;49.506;10.400;2023-01-27T02:28:17;98272.84;;;-2.34;89.07
9423;BME280;65863;49.506;10.400;2023-01-27T02:31:01;98253.44;;;-2.49;88.84
9423;BME280;65863;49.506;10.400;2023-01-27T02:33:45;98258.63;;;-2.42;88.72
9423;BME280;65863;49.506;10.400;2023-01-27T02:36:32;98247.94;;;-2.49;89.02
9423;BME280;65863;49.506;10.400;2023-01-27T02:39:19;98276.66;;;-2.22;89.03
9423;BME280;65863;49.506;10.400;2023-01-27T02:42:06;98236.16;;;-2.40;89.23
9423;BME280;65863;49.506;10.400;2023-01-27T02:44:53;98221.94;;;-2.38;88.99
9423;BME280;65863;49.506;10.400;2023-01-27T02:47:37;98255.72;;;-2.29;89.08
9423;BME280;65863;49.506;10.400;2023-01-27T02:50:22;98276.19;;;-2.20;89.03
9423;BME280;65863;49.506;10.400;2023-01-27T02:53:06;98242.28;;;-2.45;89.09
9423;BME280;65863;49.506;10.400;2023-01-27T02:55:50;98238.59;;;-2.33;89.26
9423;BME280;65863;49.506;10.400;2023-01-27T02:58:34;98249.75;;;-2.36;89.32
9423;BME280;65863;49.506;10.400;2023-01-27T03:01:31;98254.34;;;-2.33;89.12
9423;BME280;65863;49.506;10.400;2023-01-27T03:04:16;98221.97;;;-2.57;89.31
9423;BME280;65863;49.506;10.400;2023-01-27T03:07:01;98234.34;;;-2.62;89.10
9423;BME280;65863;49.506;10.400;2023-01-27T03:09:45;98253.56;;;-2.52;89.15
9423;BME280;65863;49.506;10.400;2023-01-27T03:12:29;98258.31;;;-2.34;89.16
9423;BME280;65863;49.506;10.400;2023-01-27T03:15:13;98284.44;;;-2.20;89.07
9423;BME280;65863;49.506;10.400;2023-01-27T03:18:15;98233.59;;;-2.44;89.16
9423;BME280;65863;49.506;10.400;2023-01-27T03:21:02;98269.59;;;-2.23;89.15
9423;BME280;65863;49.506;10.400;2023-01-27T03:23:46;98235.09;;;-2.61;89.06
9423;BME280;65863;49.506;10.400;2023-01-27T03:26:34;98254.34;;;-2.52;89.15
9423;BME280;65863;49.506;10.400;2023-01-27T03:29:23;98222.91;;;-2.69;89.08
9423;BME280;65863;49.506;10.400;2023-01-27T03:32:28;98273.13;;;-2.32;89.07
9423;BME280;65863;49.506;10.400;2023-01-27T03:35:37;98297.44;;;-2.39;89.01
9423;BME280;65863;49.506;10.400;2023-01-27T03:38:31;98280.00;;;-2.36;89.19
9423;BME280;65863;49.506;10.400;2023-01-27T03:41:34;98299.25;;;-2.36;88.81
9423;BME280;65863;49.506;10.400;2023-01-27T03:44:38;98274.81;;;-2.53;88.85
9423;BME280;65863;49.506;10.400;2023-01-27T03:47:40;98306.44;;;-2.39;88.93
9423;BME280;65863;49.506;10.400;2023-01-27T03:50:24;98276.63;;;-2.50;88.89
9423;BME280;65863;49.506;10.400;2023-01-27T03:53:19;98268.22;;;-2.37;89.04
9423;BME280;65863;49.506;10.400;2023-01-27T03:56:04;98302.63;;;-2.23;89.05
9423;BME280;65863;49.506;10.400;2023-01-27T03:58:52;98262.13;;;-2.69;89.09
9423;BME280;65863;49.506;10.400;2023-01-27T04:01:36;98262.59;;;-2.70;88.85
9423;BME280;65863;49.506;10.400;2023-01-27T04:04:20;98295.13;;;-2.41;88.69
9423;BME280;65863;49.506;10.400;2023-01-27T04:07:23;98270.22;;;-2.47;89.02
9423;BME280;65863;49.506;10.400;2023-01-27T04:10:07;98272.22;;;-2.47;88.86
9423;BME280;65863;49.506;10.400;2023-01-27T04:12:51;98269.94;;;-2.39;88.80
9423;BME280;65863;49.506;10.400;2023-01-27T04:15:35;98276.19;;;-2.39;89.26
9423;BME280;65863;49.506;10.400;2023-01-27T04:18:20;98264.28;;;-2.45;88.90
9423;BME280;65863;49.506;10.400;2023-01-27T04:21:04;98259.53;;;-2.54;89.10
9423;BME280;65863;49.506;10.400;2023-01-27T04:23:48;98279.88;;;-2.42;89.04
9423;BME280;65863;49.506;10.400;2023-01-27T04:26:33;98273.88;;;-2.50;89.19
9423;BME280;65863;49.506;10.400;2023-01-27T04:29:17;98264.28;;;-2.45;89.07
9423;BME280;65863;49.506;10.400;2023-01-27T04:32:03;98279.25;;;-2.28;89.30
9423;BME280;65863;49.506;10.400;2023-01-27T04:34:48;98236.31;;;-2.71;89.35
9423;BME280;65863;49.506;10.400;2023-01-27T04:37:33;98287.81;;;-2.35;89.59
9423;BME280;65863;49.506;10.400;2023-01-27T04:40:17;98294.06;;;-2.25;89.63
9423;BME280;65863;49.506;10.400;2023-01-27T04:43:03;98278.19;;;-2.39;89.66
9423;BME280;65863;49.506;10.400;2023-01-27T04:45:48;98240.28;;;-2.63;89.58
9423;BME280;65863;49.506;10.400;2023-01-27T04:48:32;98264.88;;;-2.41;89.65
9423;BME280;65863;49.506;10.400;2023-01-27T04:51:16;98223.63;;;-2.60;89.96
9423;BME280;65863;49.506;10.400;2023-01-27T04:54:00;98244.28;;;-2.55;89.81
9423;BME280;65863;49.506;10.400;2023-01-27T04:56:57;98216.78;;;-2.64;90.31
9423;BME280;65863;49.506;10.400;2023-01-27T04:59:42;98213.13;;;-2.70;90.08
9423;BME280;65863;49.506;10.400;2023-01-27T05:02:26;98236.19;;;-2.68;90.29
9423;BME280;65863;49.506;10.400;2023-01-27T05:05:10;98239.53;;;-2.73;90.13
9423;BME280;65863;49.506;10.400;2023-01-27T05:08:12;98229.75;;;-2.74;90.59
9423;BME280;65863;49.506;10.400;2023-01-27T05:10:56;98270.38;;;-2.41;90.57
9423;BME280;65863;49.506;10.400;2023-01-27T05:13:40;98280.16;;;-2.49;90.10
9423;BME280;65863;49.506;10.400;2023-01-27T05:16:25;98270.22;;;-2.56;90.69
9423;BME280;65863;49.506;10.400;2023-01-27T05:19:10;98268.56;;;-2.53;90.48
9423;BME280;65863;49.506;10.400;2023-01-27T05:21:54;98252.81;;;-2.62;90.45
9423;BME280;65863;49.506;10.400;2023-01-27T05:24:38;98260.91;;;-2.68;90.92
9423;BME280;65863;49.506;10.400;2023-01-27T05:27:21;98247.63;;;-2.79;90.70
9423;BME280;65863;49.506;10.400;2023-01-27T05:30:06;98282.75;;;-2.55;91.06
9423;BME280;65863;49.506;10.400;2023-01-27T05:32:51;98317.16;;;-2.22;91.02
9423;BME280;65863;49.506;10.400;2023-01-27T05:35:35;98275.72;;;-2.65;91.21
9423;BME280;65863;49.506;10.400;2023-01-27T05:38:19;98211.84;;;-3.06;90.92
9423;BME280;65863;49.506;10.400;2023-01-27T05:41:05;98306.56;;;-2.43;90.85
9423;BME280;65863;49.506;10.400;2023-01-27T05:43:52;98310.56;;;-2.44;90.90
9423;BME280;65863;49.506;10.400;2023-01-27T05:46:38;98269.75;;;-2.73;90.91
9423;BME280;65863;49.506;10.400;2023-01-27T05:49:23;98258.91;;;-2.86;91.31
9423;BME280;65863;49.506;10.400;2023-01-27T05:52:07;98248.03;;;-2.89;91.08
9423;BME280;65863;49.506;10.400;2023-01-27T05:54:51;98241.78;;;-2.90;91.04
9423;BME280;65863;49.506;10.400;2023-01-27T05:57:35;98279.69;;;-2.85;91.27
9423;BME280;65863;49.506;10.400;2023-01-27T06:00:20;98259.03;;;-2.89;90.93
9423;BME280;65863;49.506;10.400;2023-01-27T06:03:04;98254.47;;;-2.92;91.19
9423;BME280;65863;49.506;10.400;2023-01-27T06:05:57;98246.06;;;-3.07;91.02
9423;BME280;65863;49.506;10.400;2023-01-27T06:08:42;98333.47;;;-2.47;91.32
9423;BME280;65863;49.506;10.400;2023-01-27T06:11:26;98266.53;;;-2.90;91.25
9423;BME280;65863;49.506;10.400;2023-01-27T06:14:11;98232.31;;;-3.07;91.34
9423;BME280;65863;49.506;10.400;2023-01-27T06:16:55;98334.41;;;-2.40;91.39
9423;BME280;65863;49.506;10.400;2023-01-27T06:19:39;98284.88;;;-2.68;90.84
9423;BME280;65863;49.506;10.400;2023-01-27T06:22:23;98296.03;;;-2.72;90.89
9423;BME280;65863;49.506;10.400;2023-01-27T06:25:07;98307.03;;;-2.72;90.87
9423;BME280;65863;49.506;10.400;2023-01-27T06:27:55;98335.63;;;-2.51;90.75
9423;BME280;65863;49.506;10.400;2023-01-27T06:30:40;98358.53;;;-2.35;90.84
9423;BME280;65863;49.506;10.400;2023-01-27T06:33:24;98314.81;;;-2.70;90.46
9423;BME280;65863;49.506;10.400;2023-01-27T06:36:11;98308.06;;;-2.79;90.36
9423;BME280;65863;49.506;10.400;2023-01-27T06:38:55;98304.69;;;-2.92;90.31
9423;BME280;65863;49.506;10.400;2023-01-27T06:41:40;98336.50;;;-2.63;90.33
9423;BME280;65863;49.506;10.400;2023-01-27T06:44:24;98361.72;;;-2.46;89.93
9423;BME280;65863;49.506;10.400;2023-01-27T06:47:08;98344.75;;;-2.63;89.91
9423;BME280;65863;49.506;10.400;2023-01-27T06:49:52;98360.91;;;-2.65;89.87
9423;BME280;65863;49.506;10.400;2023-01-27T06:52:36;98345.00;;;-2.80;89.69
9423;BME280;65863;49.506;10.400;2023-01-27T06:55:20;98364.00;;;-2.63;89.40
9423;BME280;65863;49.506;10.400;2023-01-27T06:58:08;98298.38;;;-3.11;89.24
9423;BME280;65863;49.506;10.400;2023-01-27T07:00:51;98400.22;;;-2.46;89.45
9423;BME280;65863;49.506;10.400;2023-01-27T07:03:36;98378.94;;;-2.64;89.08
9423;BME280;65863;49.506;10.400;2023-01-27T07:06:19;98371.91;;;-2.65;89.11
9423;BME280;65863;49.506;10.400;2023-01-27T07:09:04;98377.56;;;-2.60;88.95
9423;BME280;65863;49.506;10.400;2023-01-27T07:11:48;98363.69;;;-2.56;89.06
9423;BME280;65863;49.506;10.400;2023-01-27T07:14:32;98378.56;;;-2.35;88.51
9423;BME280;65863;49.506;10.400;2023-01-27T07:17:16;98364.78;;;-2.44;88.58
9423;BME280;65863;49.506;10.400;2023-01-27T07:20:01;98406.22;;;-2.20;88.42
9423;BME280;65863;49.506;10.400;2023-01-27T07:22:45;98389.53;;;-2.44;88.33
9423;BME280;65863;49.506;10.400;2023-01-27T07:25:31;98394.13;;;-2.32;88.21
9423;BME280;65863;49.506;10.400;2023-01-27T07:28:15;98392.75;;;-2.36;87.99
9423;BME280;65863;49.506;10.400;2023-01-27T07:31:01;98407.72;;;-2.37;87.73
9423;BME280;65863;49.506;10.400;2023-01-27T07:33:45;98363.66;;;-2.65;87.89
9423;BME280;65863;49.506;10.400;2023-01-27T07:36:30;98410.03;;;-2.36;87.91
9423;BME280;65863;49.506;10.400;2023-01-27T07:39:13;98355.09;;;-2.77;87.66
9423;BME280;65863;49.506;10.400;2023-01-27T07:41:58;98395.31;;;-2.51;87.77
9423;BME280;65863;49.506;10.400;2023-01-27T07:44:45;98405.28;;;-2.45;87.52
9423;BME280;65863;49.506;10.400;2023-01-27T07:47:29;98379.88;;;-2.67;87.45
9423;BME280;65863;49.506;10.400;2023-01-27T07:50:14;98409.09;;;-2.33;87.17
9423;BME280;65863;49.506;10.400;2023-01-27T07:52:59;98422.75;;;-2.11;87.62
9423;BME280;65863;49.506;10.400;2023-01-27T07:55:44;98388.19;;;-2.39;87.21
9423;BME280;65863;49.506;10.400;2023-01-27T07:58:28;98372.53;;;-2.61;87.16
9423;BME280;65863;49.506;10.400;2023-01-27T08:01:12;98362.50;;;-2.55;86.88
9423;BME280;65863;49.506;10.400;2023-01-27T08:03:56;98364.00;;;-2.63;86.89
9423;BME280;65863;49.506;10.400;2023-01-27T08:06:40;98400.09;;;-2.33;86.45
9423;BME280;65863;49.506;10.400;2023-01-27T08:09:24;98446.91;;;-2.05;86.38
9423;BME280;65863;49.506;10.400;2023-01-27T08:12:08;98436.63;;;-2.14;86.37
9423;BME280;65863;49.506;10.400;2023-01-27T08:14:52;98452.41;;;-2.05;86.10
9423;BME280;65863;49.506;10.400;2023-01-27T08:17:37;98443.22;;;-2.12;86.09
9423;BME280;65863;49.506;10.400;2023-01-27T08:20:22;98411.72;;;-2.29;86.18
9423;BME280;65863;49.506;10.400;2023-01-27T08:23:07;98403.16;;;-2.31;85.85
9423;BME280;65863;49.506;10.400;2023-01-27T08:25:56;98378.38;;;-2.50;85.80
9423;BME280;65863;49.506;10.400;2023-01-27T08:28:40;98359.41;;;-2.66;85.51
9423;BME280;65863;49.506;10.400;2023-01-27T08:31:24;98379.91;;;-2.49;85.51
9423;BME280;65863;49.506;10.400;2023-01-27T08:34:08;98391.34;;;-2.50;85.26
9423;BME280;65863;49.506;10.400;2023-01-27T08:36:52;98387.41;;;-2.49;85.39
9423;BME280;65863;49.506;10.400;2023-01-27T08:39:36;98395.03;;;-2.53;85.44
9423;BME280;65863;49.506;10.400;2023-01-27T08:42:30;98452.09;;;-2.08;85.18
9423;BME280;65863;49.506;10.400;2023-01-27T08:45:13;98428.50;;;-2.36;85.30
9423;BME280;65863;49.506;10.400;2023-01-27T08:47:57;98429.44;;;-2.30;85.08
9423;BME280;65863;49.506;10.400;2023-01-27T08:50:41;98413.09;;;-2.34;84.83
9423;BME280;65863;49.506;10.400;2023-01-27T08:53:26;98454.09;;;-1.99;84.98
9423;BME280;65863;49.506;10.400;2023-01-27T08:56:13;98452.72;;;-2.03;85.16
9423;BME280;65863;49.506;10.400;2023-01-27T08:58:57;98444.13;;;-2.15;85.14
9423;BME280;65863;49.506;10.400;2023-01-27T09:01:41;98437.72;;;-2.12;84.97
9423;BME280;65863;49.506;10.400;2023-01-27T09:04:25;98443.69;;;-2.04;84.95
9423;BME280;65863;49.506;10.400;2023-01-27T09:07:11;98405.59;;;-2.33;84.78
9423;BME280;65863;49.506;10.400;2023-01-27T09:09:55;98457.31;;;-1.91;85.16
9423;BME280;65863;49.506;10.400;2023-01-27T09:12:40;98461.47;;;-1.68;84.90
9423;BME280;65863;49.506;10.400;2023-01-27T09:15:24;98416.19;;;-1.95;84.56
9423;BME280;65863;49.506;10.400;2023-01-27T09:18:09;98446.00;;;-1.75;84.77
9423;BME280;65863;49.506;10.400;2023-01-27T09:20:53;98462.06;;;-1.64;84.58
9423;BME280;65863;49.506;10.400;2023-01-27T09:23:37;98432.25;;;-1.84;84.48
9423;BME280;65863;49.506;10.400;2023-01-27T09:26:21;98425.66;;;-1.68;84.22
9423;BME280;65863;49.506;10.400;2023-01-27T09:29:05;98468.78;;;-1.46;84.19
9423;BME280;65863;49.506;10.400;2023-01-27T09:31:49;98454.72;;;-1.58;84.01
9423;BME280;65863;49.506;10.400;2023-01-27T09:34:34;98453.06;;;-1.64;83.93
9423;BME280;65863;49.506;10.400;2023-01-27T09:37:18;98448.47;;;-1.49;83.58
9423;BME280;65863;49.506;10.400;2023-01-27T09:40:13;98451.63;;;-1.23;83.91
9423;BME280;65863;49.506;10.400;2023-01-27T09:55:41;98462.66;;;-1.41;83.04
9423;BME280;65863;49.506;10.400;2023-01-27T09:58:53;98480.41;;;-1.33;82.72
9423;BME280;65863;49.506;10.400;2023-01-27T10:01:52;98482.41;;;-1.33;82.48
9423;BME280;65863;49.506;10.400;2023-01-27T10:05:13;98479.78;;;-1.28;82.75
9423;BME280;65863;49.506;10.400;2023-01-27T10:08:24;98442.94;;;-1.58;82.84
9423;BME280;65863;49.506;10.400;2023-01-27T10:23:32;98481.78;;;-1.28;82.63
9423;BME280;65863;49.506;10.400;2023-01-27T10:26:38;98470.47;;;-1.30;82.36
9423;BME280;65863;49.506;10.400;2023-01-27T10:29:31;98486.97;;;-1.12;82.77
9423;BME280;65863;49.506;10.400;2023-01-27T10:32:25;98477.81;;;-1.27;82.36
9423;BME280;65863;49.506;10.400;2023-01-27T10:35:31;98452.59;;;-1.44;82.45
9423;BME280;65863;49.506;10.400;2023-01-27T10:38:28;98491.38;;;-1.05;82.63
9423;BME280;65863;49.506;10.400;2023-01-27T10:41:26;98487.13;;;-1.06;82.74
9423;BME280;65863;49.506;10.400;2023-01-27T10:44:33;98492.41;;;-0.84;82.46
9423;BME280;65863;49.506;10.400;2023-01-27T10:50:33;98462.00;;;-1.08;82.59
9423;BME280;65863;49.506;10.400;2023-01-27T10:53:39;98463.09;;;-1.15;82.52
9423;BME280;65863;49.506;10.400;2023-01-27T10:56:39;98489.38;;;-0.86;82.00
9423;BME280;65863;49.506;10.400;2023-01-27T10:59:30;98487.50;;;-0.80;82.21
9423;BME280;65863;49.506;10.400;2023-01-27T11:05:21;98461.81;;;-0.95;81.92
9423;BME280;65863;49.506;10.400;2023-01-27T11:08:21;98429.25;;;-1.15;82.08
9423;BME280;65863;49.506;10.400;2023-01-27T11:11:08;98483.47;;;-0.60;81.98
9423;BME280;65863;49.506;10.400;2023-01-27T11:17:37;98475.22;;;-0.27;81.89
9423;BME280;65863;49.506;10.400;2023-01-27T11:20:35;98473.44;;;-0.15;81.67
9423;BME280;65863;49.506;10.400;2023-01-27T11:23:28;98472.91;;;-0.28;81.18
9423;BME280;65863;49.506;10.400;2023-01-27T11:29:42;98459.44;;;-0.36;80.97
9423;BME280;65863;49.506;10.400;2023-01-27T11:32:43;98473.09;;;-0.08;80.72
9423;BME280;65863;49.506;10.400;2023-01-27T11:35:30;98440.91;;;-0.35;80.07
9423;BME280;65863;49.506;10.400;2023-01-27T11:38:18;98442.09;;;-0.03;79.91
9423;BME280;65863;49.506;10.400;2023-01-27T11:41:03;98420.53;;;-0.13;79.68
9423;BME280;65863;49.506;10.400;2023-01-27T11:43:50;98435.75;;;0.06;79.16
9423;BME280;65863;49.506;10.400;2023-01-27T11:46:35;98400.56;;;-0.08;79.28
9423;BME280;65863;49.506;10.400;2023-01-27T11:49:41;98421.94;;;0.06;78.91
9423;BME280;65863;49.506;10.400;2023-01-27T11:52:27;98441.59;;;0.23;78.31
9423;BME280;65863;49.506;10.400;2023-01-27T11:55:21;98433.88;;;-0.12;78.29
9423;BME280;65863;49.506;10.400;2023-01-27T11:58:24;98414.91;;;-0.19;77.99
9423;BME280;65863;49.506;10.400;2023-01-27T12:01:15;98445.13;;;-0.01;78.17
9423;BME280;65863;49.506;10.400;2023-01-27T12:04:08;98407.03;;;-0.11;78.06
9423;BME280;65863;49.506;10.400;2023-01-27T12:06:59;98353.16;;;-0.46;77.94
9423;BME280;65863;49.506;10.400;2023-01-27T12:09:44;98370.94;;;-0.23;77.92
9423;BME280;65863;49.506;10.400;2023-01-27T12:12:28;98420.66;;;-0.08;77.51
9423;BME280;65863;49.506;10.400;2023-01-27T12:15:14;98341.84;;;-0.48;77.51
9423;BME280;65863;49.506;10.400;2023-01-27T12:18:11;98400.38;;;-0.05;77.52
9423;BME280;65863;49.506;10.400;2023-01-27T12:20:59;98438.38;;;0.25;77.70
9423;BME280;65863;49.506;10.400;2023-01-27T12:23:48;98410.09;;;-0.09;77.54
9423;BME280;65863;49.506;10.400;2023-01-27T12:26:37;98433.78;;;0.22;77.91
9423;BME280;65863;49.506;10.400;2023-01-27T12:29:42;98431.66;;;0.02;77.78
9423;BME280;65863;49.506;10.400;2023-01-27T12:32:39;98381.28;;;-0.32;77.82
9423;BME280;65863;49.506;10.400;2023-01-27T12:35:33;98416.59;;;0.03;77.98
9423;BME280;65863;49.506;10.400;2023-01-27T12:38:27;98373.63;;;-0.38;77.83
9423;BME280;65863;49.506;10.400;2023-01-27T12:41:37;98432.50;;;0.08;78.32
9423;BME280;65863;49.506;10.400;2023-01-27T12:44:22;98367.94;;;-0.10;78.16
9423;BME280;65863;49.506;10.400;2023-01-27T12:47:20;98395.09;;;0.07;77.94
9423;BME280;65863;49.506;10.400;2023-01-27T12:50:20;98385.94;;;0.01;77.90
9423;BME280;65863;49.506;10.400;2023-01-27T12:53:18;98425.78;;;0.24;77.85
9423;BME280;65863;49.506;10.400;2023-01-27T13:01:38;98366.09;;;0.26;77.73
9423;BME280;65863;49.506;10.400;2023-01-27T13:04:24;98384.69;;;0.41;77.64
9423;BME280;65863;49.506;10.400;2023-01-27T13:07:15;98409.25;;;0.54;77.32
9423;BME280;65863;49.506;10.400;2023-01-27T13:10:02;98384.66;;;0.26;77.10
9423;BME280;65863;49.506;10.400;2023-01-27T13:12:53;98377.03;;;0.21;76.91
9423;BME280;65863;49.506;10.400;2023-01-27T13:15:51;98330.09;;;-0.33;76.37
9423;BME280;65863;49.506;10.400;2023-01-27T13:18:36;98403.75;;;0.39;76.81
9423;BME280;65863;49.506;10.400;2023-01-27T13:21:31;98431.09;;;0.51;76.58
9423;BME280;65863;49.506;10.400;2023-01-27T13:24:30;98394.25;;;0.15;76.53
9423;BME280;65863;49.506;10.400;2023-01-27T13:27:18;98360.34;;;0.00;76.52
9423;BME280;65863;49.506;10.400;2023-01-27T13:33:02;98394.94;;;0.25;75.97
9423;BME280;65863;49.506;10.400;2023-01-27T13:35:58;98402.69;;;0.51;75.87
9423;BME280;65863;49.506;10.400;2023-01-27T13:41:45;98404.84;;;0.32;75.65
9423;BME280;65863;49.506;10.400;2023-01-27T13:44:44;98439.00;;;0.59;75.75
9423;BME280;65863;49.506;10.400;2023-01-27T13:47:44;98436.03;;;0.47;75.55
9423;BME280;65863;49.506;10.400;2023-01-27T13:50:34;98367.22;;;-0.20;75.45
9423;BME280;65863;49.506;10.400;2023-01-27T13:53:21;98371.47;;;-0.33;75.27
9423;BME280;65863;49.506;10.400;2023-01-27T14:17:16;98427.63;;;0.03;76.07
9423;BME280;65863;49.506;10.400;2023-01-27T14:25:58;98396.81;;;-0.20;76.53
9423;BME280;65863;49.506;10.400;2023-01-27T14:29:09;98408.28;;;-0.12;76.67
9423;BME280;65863;49.506;10.400;2023-01-27T14:32:10;98371.94;;;-0.35;76.79
9423;BME280;65863;49.506;10.400;2023-01-27T14:44:15;98422.66;;;-0.08;76.75
9423;BME280;65863;49.506;10.400;2023-01-27T14:47:29;98445.94;;;0.15;76.92
9423;BME280;65863;49.506;10.400;2023-01-27T14:54:04;98417.66;;;-0.19;76.86
9423;BME280;65863;49.506;10.400;2023-01-27T15:02:43;98394.00;;;-0.35;77.51
9423;BME280;65863;49.506;10.400;2023-01-27T15:05:39;98429.75;;;-0.16;77.46
9423;BME280;65863;49.506;10.400;2023-01-27T15:08:34;98381.19;;;-0.47;77.58
9423;BME280;65863;49.506;10.400;2023-01-27T15:11:48;98450.84;;;-0.04;77.78
9423;BME280;65863;49.506;10.400;2023-01-27T15:18:21;98455.78;;;-0.08;77.91
9423;BME280;65863;49.506;10.400;2023-01-27T15:21:48;98462.41;;;-0.15;78.15
9423;BME280;65863;49.506;10.400;2023-01-27T15:24:53;98452.06;;;-0.29;78.32
9423;BME280;65863;49.506;10.400;2023-01-27T15:27:41;98427.97;;;-0.53;77.95
9423;BME280;65863;49.506;10.400;2023-01-27T15:30:32;98420.91;;;-0.54;78.22
9423;BME280;65863;49.506;10.400;2023-01-27T15:33:53;98462.75;;;-0.22;78.56
9423;BME280;65863;49.506;10.400;2023-01-27T15:36:38;98444.66;;;-0.47;78.71
9423;BME280;65863;49.506;10.400;2023-01-27T15:39:22;98427.25;;;-0.63;78.85
9423;BME280;65863;49.506;10.400;2023-01-27T15:42:09;98472.31;;;-0.32;78.87
9423;BME280;65863;49.506;10.400;2023-01-27T15:45:01;98487.81;;;-0.35;78.90
9423;BME280;65863;49.506;10.400;2023-01-27T15:47:46;98452.84;;;-0.62;78.72
9423;BME280;65863;49.506;10.400;2023-01-27T15:50:32;98399.06;;;-1.00;79.41
9423;BME280;65863;49.506;10.400;2023-01-27T15:53:31;98439.38;;;-0.70;79.27
9423;BME280;65863;49.506;10.400;2023-01-27T15:56:16;98464.97;;;-0.69;79.33
9423;BME280;65863;49.506;10.400;2023-01-27T15:59:06;98509.44;;;-0.43;79.66
9423;BME280;65863;49.506;10.400;2023-01-27T16:02:14;98502.69;;;-0.42;79.84
9423;BME280;65863;49.506;10.400;2023-01-27T16:08:11;98513.13;;;-0.46;79.94
9423;BME280;65863;49.506;10.400;2023-01-27T16:11:22;98499.34;;;-0.46;80.13
9423;BME280;65863;49.506;10.400;2023-01-27T16:19:42;98496.63;;;-0.55;80.26
9423;BME280;65863;49.506;10.400;2023-01-27T16:22:38;98462.75;;;-0.89;80.54
9423;BME280;65863;49.506;10.400;2023-01-27T16:25:29;98411.19;;;-1.16;80.62
9423;BME280;65863;49.506;10.400;2023-01-27T16:28:21;98516.97;;;-0.43;80.76
9423;BME280;65863;49.506;10.400;2023-01-27T16:31:15;98511.31;;;-0.49;80.95
9423;BME280;65863;49.506;10.400;2023-01-27T16:34:04;98513.00;;;-0.52;80.96
9423;BME280;65863;49.506;10.400;2023-01-27T16:37:02;98521.59;;;-0.49;80.77
9423;BME280;65863;49.506;10.400;2023-01-27T16:40:03;98525.09;;;-0.49;81.27
9423;BME280;65863;49.506;10.400;2023-01-27T16:45:48;98512.31;;;-0.71;80.84
9423;BME280;65863;49.506;10.400;2023-01-27T16:48:45;98501.59;;;-0.78;81.31
9423;BME280;65863;49.506;10.400;2023-01-27T16:51:30;98452.81;;;-1.05;81.02
9423;BME280;65863;49.506;10.400;2023-01-27T16:54:23;98519.03;;;-0.62;81.56
9423;BME280;65863;49.506;10.400;2023-01-27T17:00:14;98542.13;;;-0.50;81.60